createdAt,value
2022-08-19T06:03:12.475Z,30.1
2022-08-19T06:04:19.708Z,30.1
2022-08-19T06:05:28.240Z,31.799999
2022-08-19T06:06:36.583Z,31.799999
2022-08-19T06:07:44.969Z,31.799999
2022-08-19T06:08:53.510Z,33.400002
2022-08-19T06:10:01.857Z,33.400002
2022-08-19T06:11:10.211Z,33.400002
2022-08-19T06:12:18.747Z,34.299999
2022-08-19T06:13:27.092Z,34.299999
2022-08-19T06:14:35.437Z,34.299999
2022-08-19T06:15:43.982Z,34
2022-08-19T06:16:52.332Z,34
2022-08-19T06:18:00.818Z,34
2022-08-19T06:19:09.384Z,33.700001
2022-08-19T06:20:17.768Z,33.700001
2022-08-19T06:21:26.068Z,33.700001
2022-08-19T06:22:34.622Z,34.400002
2022-08-19T06:23:42.966Z,34.400002
2022-08-19T06:24:51.306Z,34.400002
2022-08-19T06:25:59.859Z,36.5
2022-08-19T06:27:08.197Z,36.5
2022-08-19T06:28:16.935Z,36.5
2022-08-19T06:29:26.369Z,37.099998
2022-08-19T06:30:34.710Z,37.099998
2022-08-19T06:31:43.070Z,37.099998
2022-08-19T06:32:51.617Z,36.599998
2022-08-19T06:33:59.984Z,36.599998
2022-08-19T06:35:08.307Z,36.599998
2022-08-19T06:36:16.860Z,37.5
2022-08-19T06:37:25.198Z,37.5
2022-08-19T06:38:33.532Z,37.5
2022-08-19T06:39:42.151Z,38.299999
2022-08-19T06:40:50.419Z,38.299999
2022-08-19T06:41:59.117Z,38.299999
2022-08-19T06:43:08.641Z,36.799999
2022-08-19T06:44:15.687Z,36.799999
2022-08-19T06:45:24.474Z,36.799999
2022-08-19T06:46:33.472Z,35.5
2022-08-19T06:47:40.909Z,35.5
2022-08-19T06:48:49.244Z,35.5
2022-08-19T06:50:01.113Z,35
2022-08-19T06:51:06.168Z,35
2022-08-19T06:52:14.507Z,35
2022-08-19T06:53:23.063Z,34.5
2022-08-19T06:54:31.424Z,34.5
2022-08-19T06:55:39.771Z,34.5
2022-08-19T06:56:48.327Z,35.599998
2022-08-19T06:57:56.680Z,35.599998
2022-08-19T06:59:05.008Z,35.599998
2022-08-19T07:00:13.662Z,35.5
2022-08-19T07:01:21.914Z,35.5
2022-08-19T07:02:30.254Z,35.5
2022-08-19T07:03:39.674Z,36.5
2022-08-19T07:04:47.162Z,36.5
2022-08-19T07:05:55.491Z,36.5
2022-08-19T07:07:07.818Z,38.799999
2022-08-19T07:08:12.394Z,38.799999
2022-08-19T07:09:20.719Z,38.799999
2022-08-19T07:10:29.275Z,39.099998
2022-08-19T07:11:37.612Z,39.099998
2022-08-19T07:12:45.955Z,39.099998
2022-08-19T07:13:54.502Z,40.5
2022-08-19T07:15:02.858Z,40.5
2022-08-19T07:16:11.209Z,40.5
2022-08-19T07:17:19.768Z,40.900002
2022-08-19T07:18:28.110Z,40.900002
2022-08-19T07:19:36.451Z,40.900002
2022-08-19T07:20:45.015Z,40.099998
2022-08-19T07:21:53.353Z,40.099998
2022-08-19T07:23:01.699Z,40.099998
2022-08-19T07:24:10.243Z,40.299999
2022-08-19T07:25:18.590Z,40.299999
2022-08-19T07:26:27.758Z,40.299999
2022-08-19T07:27:35.492Z,40.400002
2022-08-19T07:28:46.163Z,40.400002
2022-08-19T07:29:55.783Z,40.400002
2022-08-19T07:31:00.711Z,39.900002
2022-08-19T07:32:11.533Z,39.900002
2022-08-19T07:33:17.408Z,39.900002
2022-08-19T07:34:25.954Z,40.900002
2022-08-19T07:35:34.303Z,40.900002
2022-08-19T07:36:42.635Z,40.900002
2022-08-19T07:37:51.185Z,41.5
2022-08-19T07:38:59.568Z,41.5
2022-08-19T07:40:08.039Z,41.5
2022-08-19T07:41:16.483Z,42
2022-08-19T07:42:24.842Z,42
2022-08-19T07:43:35.075Z,42
2022-08-19T07:44:41.846Z,42.099998
2022-08-19T07:45:50.138Z,42.099998
2022-08-19T07:46:58.490Z,42.099998
2022-08-19T07:48:07.072Z,40.099998
2022-08-19T07:49:15.400Z,40.099998
2022-08-19T07:50:23.923Z,40.099998
2022-08-19T07:51:35.949Z,42.400002
2022-08-19T07:52:41.371Z,42.400002
2022-08-19T07:53:49.713Z,42.400002
2022-08-19T07:54:58.289Z,41
2022-08-19T07:56:06.631Z,41
2022-08-19T07:57:15.114Z,41
2022-08-19T07:58:23.648Z,41.099998
2022-08-19T07:59:32.005Z,41.099998
2022-08-19T08:00:40.349Z,41.099998
2022-08-19T08:01:48.943Z,39.700001
2022-08-19T08:02:57.450Z,39.700001
2022-08-19T08:04:05.679Z,39.700001
2022-08-19T08:05:14.178Z,41.5
2022-08-19T08:06:22.541Z,41.5
2022-08-19T08:07:31.393Z,41.5
2022-08-19T08:08:44.560Z,40.900002
2022-08-19T08:09:49.562Z,40.900002
2022-08-19T08:10:56.996Z,40.900002
2022-08-19T08:12:09.009Z,41.200001
2022-08-19T08:13:13.110Z,41.200001
2022-08-19T08:14:28.945Z,41.200001
2022-08-19T08:15:29.933Z,41.200001
2022-08-19T08:16:39.470Z,41.200001
2022-08-19T08:17:48.536Z,41.200001
2022-08-19T08:18:55.157Z,39.700001
2022-08-19T08:20:03.538Z,39.700001
2022-08-19T08:21:11.856Z,39.700001
2022-08-19T08:22:20.415Z,40
2022-08-19T08:23:28.763Z,40
2022-08-19T08:24:37.107Z,40
2022-08-19T08:25:45.670Z,39.299999
2022-08-19T08:26:57.036Z,39.299999
2022-08-19T08:28:02.364Z,39.299999
2022-08-19T08:29:12.282Z,35.799999
2022-08-19T08:30:19.276Z,35.799999
2022-08-19T08:31:27.615Z,35.799999
2022-08-19T08:32:36.173Z,36.599998
2022-08-19T08:33:44.530Z,36.599998
2022-08-19T08:34:52.955Z,36.599998
2022-08-19T08:36:01.496Z,33.700001
2022-08-19T08:37:09.851Z,33.700001
2022-08-19T08:38:18.190Z,33.700001
2022-08-19T08:39:26.762Z,34.900002
2022-08-19T08:40:35.111Z,34.900002
2022-08-19T08:41:43.455Z,34.900002
2022-08-19T08:42:52.144Z,33.900002
2022-08-19T08:44:00.414Z,33.900002
2022-08-19T08:45:08.786Z,33.900002
2022-08-19T08:46:19.195Z,32.5
2022-08-19T08:47:25.700Z,32.5
2022-08-19T08:48:34.033Z,32.5
2022-08-19T08:49:42.598Z,33.5
2022-08-19T08:50:51.143Z,33.5
2022-08-19T08:52:00.277Z,33.5
2022-08-19T08:53:08.055Z,34.900002
2022-08-19T08:54:16.391Z,34.900002
2022-08-19T08:55:24.756Z,34.900002
2022-08-19T08:56:33.347Z,34.200001
2022-08-19T08:57:42.498Z,34.200001
2022-08-19T08:58:53.950Z,34.200001
2022-08-19T08:59:58.590Z,34.5
2022-08-19T09:01:06.947Z,34.5
2022-08-19T09:02:15.281Z,34.5
2022-08-19T09:03:23.831Z,35.299999
2022-08-19T09:04:32.207Z,35.299999
2022-08-19T09:05:41.472Z,35.299999
2022-08-19T09:06:49.125Z,35.900002
2022-08-19T09:07:57.683Z,35.900002
2022-08-19T09:09:11.676Z,35.900002
2022-08-19T09:10:14.388Z,35.700001
2022-08-19T09:11:42.328Z,35.700001
2022-08-19T09:12:31.083Z,35.700001
2022-08-19T09:13:39.651Z,32.799999
2022-08-19T09:14:52.150Z,32.799999
2022-08-19T09:15:56.347Z,32.799999
2022-08-19T09:17:04.919Z,29.700001
2022-08-19T09:18:15.087Z,29.700001
2022-08-19T09:19:22.277Z,29.700001
2022-08-19T09:20:30.210Z,27.9
2022-08-19T09:21:38.554Z,27.9
2022-08-19T09:22:46.941Z,27.9
2022-08-19T09:23:55.512Z,26
2022-08-19T09:25:03.915Z,26
2022-08-19T09:26:12.260Z,26
2022-08-19T09:27:20.812Z,28.6
2022-08-19T09:28:29.177Z,28.6
2022-08-19T09:29:37.535Z,28.6
2022-08-19T09:30:46.107Z,29.700001
2022-08-19T09:31:54.462Z,29.700001
2022-08-19T09:33:02.800Z,29.700001
2022-08-19T09:34:20.918Z,30.799999
2022-08-19T09:35:19.734Z,30.799999
2022-08-19T09:36:31.127Z,30.799999
2022-08-19T09:37:36.624Z,29.1
2022-08-19T09:38:45.023Z,29.1
2022-08-19T09:39:53.366Z,29.1
2022-08-19T09:41:01.936Z,25.700001
2022-08-19T09:42:16.252Z,25.700001
2022-08-19T09:43:31.103Z,25.700001
2022-08-19T09:44:27.220Z,25.1
2022-08-19T09:45:35.572Z,25.1
2022-08-19T09:46:43.921Z,25.1
2022-08-19T09:47:54.021Z,23.700001
2022-08-19T09:49:02.922Z,23.700001
2022-08-19T09:50:09.227Z,23.700001
2022-08-19T09:51:17.776Z,23.700001
2022-08-19T09:52:26.130Z,23.700001
2022-08-19T09:53:34.477Z,23.700001
2022-08-19T09:54:44.137Z,21.799999
2022-08-19T09:55:51.375Z,21.799999
2022-08-19T09:56:59.726Z,21.799999
2022-08-19T09:58:08.269Z,23.4
2022-08-19T09:59:16.606Z,23.4
2022-08-19T10:00:24.958Z,23.4
2022-08-19T10:01:33.644Z,20.799999
2022-08-19T10:02:41.908Z,20.799999
2022-08-19T10:03:50.255Z,20.799999
2022-08-19T10:04:58.815Z,21.799999
2022-08-19T10:06:14.834Z,21.799999
2022-08-19T10:07:15.531Z,21.799999
2022-08-19T10:08:24.069Z,21.9
2022-08-19T10:09:33.676Z,21.9
2022-08-19T10:10:43.153Z,21.9
2022-08-19T10:11:54.751Z,21.299999
2022-08-19T10:12:57.708Z,21.299999
2022-08-19T10:14:06.039Z,21.299999
2022-08-19T10:15:14.595Z,22.1
2022-08-19T10:16:22.953Z,22.1
2022-08-19T10:17:31.595Z,22.1
2022-08-19T10:18:39.865Z,22.799999
2022-08-19T10:19:52.675Z,22.799999
2022-08-19T10:20:56.579Z,22.799999
2022-08-19T10:22:05.125Z,21.4
2022-08-19T10:23:13.487Z,21.4
2022-08-19T10:24:21.852Z,21.4
2022-08-19T10:25:30.402Z,23
2022-08-19T10:26:38.735Z,23
2022-08-19T10:27:51.280Z,23
2022-08-19T10:28:55.618Z,24.6
2022-08-19T10:30:03.988Z,24.6
2022-08-19T10:31:12.323Z,24.6
2022-08-19T10:32:20.849Z,24
2022-08-19T10:33:38.269Z,24
2022-08-19T10:34:37.577Z,24
2022-08-19T10:35:56.714Z,24.700001
2022-08-19T10:36:56.235Z,24.700001
2022-08-19T10:38:02.967Z,24.700001
2022-08-19T10:39:11.392Z,19.200001
2022-08-19T10:40:19.790Z,19.200001
2022-08-19T10:41:28.072Z,19.200001
2022-08-19T10:42:36.622Z,16.5
2022-08-19T10:43:44.977Z,16.5
2022-08-19T10:44:53.316Z,16.5
2022-08-19T10:46:01.855Z,16.5
2022-08-19T10:47:17.250Z,16.5
2022-08-19T10:48:19.464Z,16.5
2022-08-19T10:49:27.988Z,17.6
2022-08-19T10:50:35.441Z,17.6
2022-08-19T10:51:46.611Z,17.6
2022-08-19T10:52:52.318Z,17.9
2022-08-19T10:54:00.670Z,17.9
2022-08-19T10:55:09.013Z,17.9
2022-08-19T10:56:17.570Z,17.700001
2022-08-19T10:57:27.892Z,17.700001
2022-08-19T10:58:34.257Z,17.700001
2022-08-19T10:59:42.828Z,16.299999
2022-08-19T11:00:51.230Z,16.299999
2022-08-19T11:01:59.513Z,16.299999
2022-08-19T11:03:08.053Z,17.1
2022-08-19T11:04:16.413Z,17.1
2022-08-19T11:05:24.765Z,17.1
2022-08-19T11:06:33.302Z,19.299999
2022-08-19T11:07:41.627Z,19.299999
2022-08-19T11:08:49.964Z,19.299999
2022-08-19T11:09:58.500Z,21.5
2022-08-19T11:11:06.829Z,21.5
2022-08-19T11:12:15.153Z,21.5
2022-08-19T11:13:23.684Z,22.200001
2022-08-19T11:14:32.087Z,22.200001
2022-08-19T11:15:40.338Z,22.200001
2022-08-19T11:16:48.864Z,23
2022-08-19T11:17:57.202Z,23
2022-08-19T11:19:05.550Z,23
2022-08-19T11:20:14.084Z,23.4
2022-08-19T11:21:22.429Z,23.4
2022-08-19T11:22:35.423Z,23.4
2022-08-19T11:23:39.294Z,23.6
2022-08-19T11:24:47.626Z,23.6
2022-08-19T11:25:55.956Z,23.6
2022-08-19T11:27:04.484Z,24.200001
2022-08-19T11:28:12.814Z,24.200001
2022-08-19T11:29:21.141Z,24.200001
2022-08-19T11:30:29.675Z,23.9
2022-08-19T11:31:37.997Z,23.9
2022-08-19T11:32:49.333Z,23.9
2022-08-19T11:33:54.872Z,22.9
2022-08-19T11:35:03.206Z,22.9
2022-08-19T11:36:11.659Z,22.9
2022-08-19T11:37:20.183Z,22.299999
2022-08-19T11:38:28.718Z,22.299999
2022-08-19T11:39:37.473Z,22.299999
2022-08-19T11:40:46.243Z,20.799999
2022-08-19T11:42:00.497Z,20.799999
2022-08-19T11:43:11.740Z,20.799999
2022-08-19T11:44:20.282Z,20.4
2022-08-19T11:45:28.636Z,20.4
2022-08-19T11:46:36.997Z,20.4
2022-08-19T11:47:45.582Z,19.9
2022-08-19T11:48:53.937Z,19.9
2022-08-19T11:50:02.301Z,19.9
2022-08-19T11:51:10.834Z,20
2022-08-19T11:52:19.180Z,20
2022-08-19T11:53:27.604Z,20
2022-08-19T11:54:36.133Z,19.799999
2022-08-19T11:55:44.467Z,19.799999
2022-08-19T11:56:52.800Z,19.799999
2022-08-19T11:58:01.327Z,18.299999
2022-08-19T11:59:14.176Z,18.299999
2022-08-19T12:00:17.992Z,18.299999
2022-08-19T12:01:26.529Z,17.200001
2022-08-19T12:02:34.869Z,17.200001
2022-08-19T12:03:43.260Z,17.200001
2022-08-19T12:04:51.754Z,19
2022-08-19T12:06:00.121Z,19
2022-08-19T12:07:08.468Z,19
2022-08-19T12:08:17.020Z,18.200001
2022-08-19T12:09:25.370Z,18.200001
2022-08-19T12:10:33.713Z,18.200001
2022-08-19T12:11:42.239Z,18.5
2022-08-19T12:12:58.031Z,18.5
2022-08-19T12:13:58.926Z,18.5
2022-08-19T12:15:07.487Z,18.5
2022-08-19T12:16:15.811Z,18.5
2022-08-19T12:17:24.144Z,18.5
2022-08-19T12:18:32.716Z,18.799999
2022-08-19T12:19:41.072Z,18.799999
2022-08-19T12:20:49.393Z,18.799999
2022-08-19T12:21:57.940Z,19.1
2022-08-19T12:23:06.296Z,19.1
2022-08-19T12:24:14.663Z,19.1
2022-08-19T12:25:23.205Z,21.1
2022-08-19T12:26:31.548Z,21.1
2022-08-19T12:27:41.633Z,21.1
2022-08-19T12:28:48.455Z,19
2022-08-19T12:29:56.796Z,19
2022-08-19T12:31:05.137Z,19
2022-08-19T12:32:13.702Z,18.200001
2022-08-19T12:33:22.050Z,18.200001
2022-08-19T12:34:30.420Z,18.200001
2022-08-19T12:35:40.440Z,17.5
2022-08-19T12:36:47.283Z,17.5
2022-08-19T12:37:56.638Z,17.5
2022-08-19T12:39:04.199Z,18.6
2022-08-19T12:40:12.628Z,18.6
2022-08-19T12:41:20.897Z,18.6
2022-08-19T12:42:29.451Z,18.5
2022-08-19T12:43:37.803Z,18.5
2022-08-19T12:44:46.145Z,18.5
2022-08-19T12:45:54.678Z,20.4
2022-08-19T12:47:03.530Z,20.4
2022-08-19T12:48:33.073Z,20.4
2022-08-19T12:49:32.161Z,18.1
2022-08-19T12:50:28.311Z,18.1
2022-08-19T12:51:36.651Z,18.1
2022-08-19T12:52:45.210Z,20
2022-08-19T12:53:53.569Z,20
2022-08-19T12:55:01.943Z,20
2022-08-19T12:56:12.172Z,19.700001
2022-08-19T12:57:18.835Z,19.700001
2022-08-19T12:58:27.585Z,19.700001
2022-08-19T12:59:35.744Z,19
2022-08-19T13:00:44.130Z,19
2022-08-19T13:01:52.452Z,19
2022-08-19T13:03:00.997Z,19.6
2022-08-19T13:04:09.348Z,19.6
2022-08-19T13:05:17.700Z,19.6
2022-08-19T13:06:26.253Z,20.5
2022-08-19T13:07:34.591Z,20.5
2022-08-19T13:08:42.950Z,20.5
2022-08-19T13:09:51.509Z,20
2022-08-19T13:10:59.885Z,20
2022-08-19T13:12:08.218Z,20
2022-08-19T13:13:16.774Z,21.700001
2022-08-19T13:14:25.163Z,21.700001
2022-08-19T13:15:33.526Z,21.700001
2022-08-19T13:16:42.086Z,22.799999
2022-08-19T13:17:50.487Z,22.799999
2022-08-19T13:18:59.098Z,22.799999
2022-08-19T13:20:07.655Z,22.4
2022-08-19T13:21:15.994Z,22.4
2022-08-19T13:22:24.333Z,22.4
2022-08-19T13:23:32.890Z,21.9
2022-08-19T13:24:45.211Z,21.9
2022-08-19T13:25:49.585Z,21.9
2022-08-19T13:26:58.134Z,20.799999
2022-08-19T13:28:06.485Z,20.799999
2022-08-19T13:29:15.587Z,20.799999
2022-08-19T13:30:24.139Z,21.4
2022-08-19T13:31:32.522Z,21.4
2022-08-19T13:32:40.866Z,21.4
2022-08-19T13:33:49.409Z,21.200001
2022-08-19T13:34:57.767Z,21.200001
2022-08-19T13:36:06.106Z,21.200001
2022-08-19T13:37:14.652Z,20.5
2022-08-19T13:38:23.024Z,20.5
2022-08-19T13:39:31.451Z,20.5
2022-08-19T13:40:39.946Z,21
2022-08-19T13:41:48.309Z,21
2022-08-19T13:42:56.644Z,21
2022-08-19T13:44:05.207Z,30.6
2022-08-19T13:45:13.546Z,30.6
2022-08-19T13:46:28.593Z,30.6
2022-08-19T13:47:37.153Z,18.799999
2022-08-19T13:48:45.515Z,18.799999
2022-08-19T13:49:53.849Z,18.799999
2022-08-19T13:51:02.401Z,18.200001
2022-08-19T13:52:10.782Z,18.200001
2022-08-19T13:53:19.125Z,18.200001
2022-08-19T13:54:27.705Z,17.700001
2022-08-19T13:55:36.062Z,17.700001
2022-08-19T13:56:44.398Z,17.700001
2022-08-19T13:57:53.137Z,19.299999
2022-08-19T13:59:01.401Z,19.299999
2022-08-19T14:00:09.746Z,19.299999
2022-08-19T14:01:18.338Z,17.9
2022-08-19T14:02:26.666Z,17.9
2022-08-19T14:03:35.050Z,17.9
2022-08-19T14:04:43.593Z,16.9
2022-08-19T14:05:51.983Z,16.9
2022-08-19T14:07:00.324Z,16.9
2022-08-19T14:08:08.897Z,17.799999
2022-08-19T14:09:17.224Z,17.799999
2022-08-19T14:10:25.569Z,17.799999
2022-08-19T14:11:34.131Z,17
2022-08-19T14:12:42.467Z,17
2022-08-19T14:13:50.854Z,17
2022-08-19T14:14:59.426Z,18.4
2022-08-19T14:16:07.745Z,18.4
2022-08-19T14:17:16.119Z,18.4
2022-08-19T14:18:24.670Z,18
2022-08-19T14:19:33.025Z,18
2022-08-19T14:20:41.393Z,18
2022-08-19T14:21:49.981Z,17.299999
2022-08-19T14:22:58.309Z,17.299999
2022-08-19T14:24:06.664Z,17.299999
2022-08-19T14:25:15.218Z,17.9
2022-08-19T14:26:23.552Z,17.9
2022-08-19T14:27:31.910Z,17.9
2022-08-19T14:28:40.467Z,18.9
2022-08-19T15:03:36.751Z,0
2022-08-19T15:04:45.088Z,0
2022-08-19T15:05:53.436Z,0
2022-08-19T15:07:02.022Z,19
2022-08-19T15:08:10.365Z,19
2022-08-19T15:09:18.715Z,19
2022-08-19T15:10:27.265Z,22.200001
2022-08-19T15:11:35.595Z,22.200001
2022-08-19T15:12:44.001Z,22.200001
2022-08-19T15:13:52.479Z,22.299999
2022-08-19T15:15:00.861Z,22.299999
2022-08-19T15:16:10.025Z,22.299999
2022-08-19T15:17:17.756Z,21.799999
2022-08-19T15:18:26.098Z,21.799999
2022-08-19T15:19:34.459Z,21.799999
2022-08-19T15:20:43.015Z,20.5
2022-08-19T15:21:51.353Z,20.5
2022-08-19T15:22:59.704Z,20.5
2022-08-19T15:24:08.268Z,20.5
2022-08-19T15:25:16.725Z,20.5
2022-08-19T15:26:25.070Z,20.5
2022-08-19T15:27:33.624Z,20.799999
2022-08-19T15:28:41.984Z,20.799999
2022-08-19T15:29:50.324Z,20.799999
2022-08-19T15:30:58.874Z,21.299999
2022-08-19T15:32:07.227Z,21.299999
2022-08-19T15:33:15.563Z,21.299999
2022-08-19T15:34:24.121Z,21.299999
2022-08-19T15:35:32.476Z,21.299999
2022-08-19T15:36:40.816Z,21.299999
2022-08-19T15:37:49.904Z,20.9
2022-08-19T15:38:58.260Z,20.9
2022-08-19T15:40:06.727Z,20.9
2022-08-19T15:41:15.414Z,20.9
2022-08-19T15:42:29.724Z,20.9
2022-08-19T15:43:32.403Z,20.9
2022-08-19T15:44:40.954Z,20
2022-08-19T15:45:49.633Z,20
2022-08-19T15:46:57.670Z,20
2022-08-19T15:48:06.992Z,19
2022-08-19T15:49:15.326Z,19
2022-08-19T15:50:23.741Z,19
2022-08-19T15:51:32.320Z,19.4
2022-08-19T15:52:48.373Z,19.4
2022-08-19T15:53:49.554Z,19.4
2022-08-19T15:54:58.117Z,20.299999
2022-08-19T15:56:06.446Z,20.299999
2022-08-19T15:57:14.800Z,20.299999
2022-08-19T15:58:28.165Z,20.299999
2022-08-19T15:59:31.680Z,20.299999
2022-08-19T16:00:40.024Z,20.299999
2022-08-19T16:01:48.595Z,20.299999
2022-08-19T16:02:56.946Z,20.299999
2022-08-19T16:04:05.280Z,20.299999
2022-08-19T16:05:13.854Z,20.799999
2022-08-19T16:06:22.204Z,20.799999
2022-08-19T16:07:30.555Z,20.799999
2022-08-19T16:08:48.995Z,21.1
2022-08-19T16:09:47.424Z,21.1
2022-08-19T16:10:55.844Z,21.1
2022-08-19T16:12:04.409Z,21.200001
2022-08-19T16:13:12.753Z,21.200001
2022-08-19T16:14:21.097Z,21.200001
2022-08-19T16:15:29.663Z,22.200001
2022-08-19T16:16:38.002Z,22.200001
2022-08-19T16:17:55.449Z,22.200001
2022-08-19T16:18:54.889Z,22.5
2022-08-19T16:20:03.255Z,22.5
2022-08-19T16:21:11.606Z,22.5
2022-08-19T16:22:20.143Z,22.299999
2022-08-19T16:23:28.506Z,22.299999
2022-08-19T16:24:36.830Z,22.299999
2022-08-19T16:25:45.395Z,22.6
2022-08-19T16:26:53.724Z,22.6
2022-08-19T16:28:06.886Z,22.6
2022-08-19T16:29:12.271Z,22.4
2022-08-19T16:30:18.960Z,22.4
2022-08-19T16:31:27.334Z,22.4
2022-08-19T16:32:35.875Z,21.799999
2022-08-19T16:33:44.279Z,21.799999
2022-08-19T16:34:52.634Z,21.799999
2022-08-19T16:36:07.405Z,21.700001
2022-08-19T16:37:09.531Z,21.700001
2022-08-19T16:38:18.019Z,21.700001
2022-08-19T16:39:26.613Z,21.6
2022-08-19T16:40:34.971Z,21.6
2022-08-19T16:41:43.328Z,21.6
2022-08-19T16:42:51.867Z,21.799999
2022-08-19T16:44:00.219Z,21.799999
2022-08-19T16:45:08.600Z,21.799999
2022-08-19T16:46:17.858Z,20.700001
2022-08-19T16:47:25.497Z,20.700001
2022-08-19T16:48:33.970Z,20.700001
2022-08-19T16:49:52.756Z,21.6
2022-08-19T16:50:50.953Z,21.6
2022-08-19T16:51:59.306Z,21.6
2022-08-19T16:53:07.898Z,21.200001
2022-08-19T16:54:16.264Z,21.200001
2022-08-19T16:55:24.607Z,21.200001
2022-08-19T16:56:33.179Z,20.9
2022-08-19T16:57:41.566Z,20.9
2022-08-19T16:58:49.941Z,20.9
2022-08-19T16:59:58.491Z,21.5
2022-08-19T17:01:06.889Z,21.5
2022-08-19T17:02:15.208Z,21.5
2022-08-19T17:03:27.819Z,21.6
2022-08-19T17:04:32.153Z,21.6
2022-08-19T17:05:40.516Z,21.6
2022-08-19T17:06:49.058Z,20.700001
2022-08-19T17:07:57.398Z,20.700001
2022-08-19T17:09:05.755Z,20.700001
2022-08-19T17:10:14.337Z,20.700001
2022-08-19T17:11:22.688Z,20.700001
2022-08-19T17:12:31.585Z,20.700001
2022-08-19T17:13:39.609Z,20.299999
2022-08-19T17:14:47.975Z,20.299999
2022-08-19T17:15:56.339Z,20.299999
2022-08-19T17:17:04.898Z,18.9
2022-08-19T17:18:13.238Z,18.9
2022-08-19T17:19:21.592Z,18.9
2022-08-19T17:20:30.161Z,18.9
2022-08-19T17:21:38.562Z,18.9
2022-08-19T17:22:46.878Z,18.9
2022-08-19T17:23:55.445Z,20.200001
2022-08-19T17:25:04.048Z,20.200001
2022-08-19T17:26:15.931Z,20.200001
2022-08-19T17:27:20.956Z,19.700001
2022-08-19T17:28:29.294Z,19.700001
2022-08-19T17:29:37.630Z,19.700001
2022-08-19T17:30:46.396Z,20
2022-08-19T17:31:54.737Z,20
2022-08-19T17:33:03.077Z,20
2022-08-19T17:34:11.645Z,19.799999
2022-08-19T17:35:23.606Z,19.799999
2022-08-19T17:36:28.336Z,19.799999
2022-08-19T17:37:36.889Z,20.200001
2022-08-19T17:38:45.236Z,20.200001
2022-08-19T17:39:53.691Z,20.200001
2022-08-19T17:41:02.127Z,18.700001
2022-08-19T17:42:10.488Z,18.700001
2022-08-19T17:43:18.820Z,18.700001
2022-08-19T17:44:27.369Z,19.299999
2022-08-19T17:45:35.717Z,19.299999
2022-08-19T17:46:44.051Z,19.299999
2022-08-19T17:47:52.635Z,20.5
2022-08-19T17:49:00.980Z,20.5
2022-08-19T17:50:09.320Z,20.5
2022-08-19T17:51:17.871Z,20
2022-08-19T17:52:26.214Z,20
2022-08-19T17:53:34.563Z,20
2022-08-19T17:54:43.125Z,20.1
2022-08-19T17:55:51.458Z,20.1
2022-08-19T17:56:59.795Z,20.1
2022-08-19T17:58:08.342Z,18.799999
2022-08-19T17:59:16.673Z,18.799999
2022-08-19T18:00:25.016Z,18.799999
2022-08-19T18:01:44.187Z,18.700001
2022-08-19T18:02:41.891Z,18.700001
2022-08-19T18:03:50.224Z,18.700001
2022-08-19T18:04:58.818Z,18.299999
2022-08-19T18:06:07.149Z,18.299999
2022-08-19T18:07:15.506Z,18.299999
2022-08-19T18:08:24.049Z,19.299999
2022-08-19T18:09:40.402Z,19.299999
2022-08-19T18:10:40.727Z,19.299999
2022-08-19T18:11:52.505Z,20
2022-08-19T18:12:57.636Z,20
2022-08-19T18:14:05.960Z,20
2022-08-19T18:15:14.514Z,19.9
2022-08-19T18:16:22.858Z,19.9
2022-08-19T18:17:31.200Z,19.9
2022-08-19T18:18:39.740Z,18.299999
2022-08-19T18:19:48.082Z,18.299999
2022-08-19T18:20:56.421Z,18.299999
2022-08-19T18:22:04.965Z,18.5
2022-08-19T18:23:41.576Z,18.5
2022-08-19T18:24:21.651Z,18.5
2022-08-19T18:25:30.204Z,19.299999
2022-08-19T18:26:38.535Z,19.299999
2022-08-19T18:27:46.868Z,19.299999
2022-08-19T18:28:55.427Z,19.4
2022-08-19T18:30:03.773Z,19.4
2022-08-19T18:31:12.107Z,19.4
2022-08-19T18:32:23.128Z,15.5
2022-08-19T18:33:28.942Z,15.5
2022-08-19T18:34:37.285Z,15.5
2022-08-19T18:35:45.823Z,11.5
2022-08-19T18:36:54.342Z,11.5
2022-08-19T18:38:02.495Z,11.5
2022-08-19T18:39:11.047Z,8.6
2022-08-19T18:40:19.430Z,8.6
2022-08-19T18:41:27.736Z,8.6
2022-08-19T18:42:36.274Z,7
2022-08-19T18:43:44.621Z,7
2022-08-19T18:44:55.707Z,7
2022-08-19T18:46:01.498Z,5.7
2022-08-19T18:47:09.841Z,5.7
2022-08-19T18:48:25.793Z,5.7
2022-08-19T18:49:26.738Z,5.5
2022-08-19T18:50:35.058Z,5.5
2022-08-19T18:51:43.382Z,5.5
2022-08-19T18:52:51.905Z,5.1
2022-08-19T18:54:00.231Z,5.1
2022-08-19T18:55:08.576Z,5.1
2022-08-19T18:56:17.131Z,4.8
2022-08-19T18:57:25.467Z,4.8
2022-08-19T18:58:33.841Z,4.8
2022-08-19T18:59:42.353Z,5.6
2022-08-19T19:00:50.719Z,5.6
2022-08-19T19:01:59.028Z,5.6
2022-08-19T19:03:07.566Z,5.4
2022-08-19T19:04:15.896Z,5.4
2022-08-19T19:05:24.249Z,5.4
2022-08-19T19:06:32.781Z,5.4
2022-08-19T19:07:41.119Z,5.4
2022-08-19T19:08:49.459Z,5.4
2022-08-19T19:09:58.015Z,6
2022-08-19T19:11:06.352Z,6
2022-08-19T19:12:14.707Z,6
2022-08-19T19:13:23.248Z,7.4
2022-08-19T19:14:48.014Z,7.4
2022-08-19T19:15:39.925Z,7.4
2022-08-19T19:16:48.466Z,7.6
2022-08-19T19:17:56.903Z,7.6
2022-08-19T19:19:05.126Z,7.6
2022-08-19T19:20:13.676Z,7.5
2022-08-19T19:21:22.014Z,7.5
2022-08-19T19:22:30.341Z,7.5
2022-08-19T19:23:38.882Z,7.2
2022-08-19T19:24:47.233Z,7.2
2022-08-19T19:25:55.579Z,7.2
2022-08-19T19:27:04.129Z,7.3
2022-08-19T19:28:13.697Z,7.3
2022-08-19T19:29:20.801Z,7.3
2022-08-19T19:30:29.349Z,7.7
2022-08-19T19:31:37.691Z,7.7
2022-08-19T19:32:46.026Z,7.7
2022-08-19T19:33:54.581Z,8.1
2022-08-19T19:35:02.936Z,8.1
2022-08-19T19:36:11.249Z,8.1
2022-08-19T19:37:19.792Z,7.6
2022-08-19T19:38:28.140Z,7.6
2022-08-19T19:39:45.019Z,7.6
2022-08-19T19:40:45.016Z,7.2
2022-08-19T19:41:53.362Z,7.2
2022-08-19T19:43:01.692Z,7.2
2022-08-19T19:44:30.431Z,6.9
2022-08-19T19:45:18.591Z,6.9
2022-08-19T19:46:26.913Z,6.9
2022-08-19T19:47:35.459Z,7.2
2022-08-19T19:48:43.793Z,7.2
2022-08-19T19:50:13.095Z,7.2
2022-08-19T19:51:00.689Z,7.8
2022-08-19T19:52:09.872Z,7.8
2022-08-19T19:53:17.339Z,7.8
2022-08-19T19:54:25.901Z,7.2
2022-08-19T19:55:34.241Z,7.2
2022-08-19T19:56:42.587Z,7.2
2022-08-19T19:57:51.154Z,6.7
2022-08-19T19:58:59.479Z,6.7
2022-08-19T20:00:07.803Z,6.7
2022-08-19T20:01:17.561Z,6.9
2022-08-19T20:02:24.689Z,6.9
2022-08-19T20:03:33.019Z,6.9
2022-08-19T20:04:41.579Z,7.3
2022-08-19T20:05:49.924Z,7.3
2022-08-19T20:06:58.257Z,7.3
2022-08-19T20:08:06.811Z,6.7
2022-08-19T20:09:18.989Z,6.7
2022-08-19T20:10:23.496Z,6.7
2022-08-19T20:11:32.038Z,6.9
2022-08-19T20:12:40.378Z,6.9
2022-08-19T20:13:48.774Z,6.9
2022-08-19T20:14:57.327Z,6.7
2022-08-19T20:16:05.654Z,6.7
2022-08-19T20:17:14.006Z,6.7
2022-08-19T20:18:22.539Z,6.5
2022-08-19T20:19:30.889Z,6.5
2022-08-19T20:20:39.239Z,6.5
2022-08-19T20:21:51.145Z,6.9
2022-08-19T20:22:56.127Z,6.9
2022-08-19T20:24:05.856Z,6.9
2022-08-19T20:25:12.981Z,7.1
2022-08-19T20:26:28.738Z,7.1
2022-08-19T20:27:31.130Z,7.1
2022-08-19T20:28:38.195Z,6.6
2022-08-19T20:29:46.534Z,6.6
2022-08-19T20:30:54.856Z,6.6
2022-08-19T20:32:03.393Z,6.8
2022-08-19T20:33:11.750Z,6.8
2022-08-19T20:34:20.079Z,6.8
2022-08-19T20:35:28.610Z,6.8
2022-08-19T20:36:36.951Z,6.8
2022-08-19T20:37:45.281Z,6.8
2022-08-19T20:38:53.827Z,6.9
2022-08-19T20:40:02.251Z,6.9
2022-08-19T20:41:10.495Z,6.9
2022-08-19T20:42:19.032Z,6.9
2022-08-19T20:43:27.384Z,6.9
2022-08-19T20:44:35.731Z,6.9
2022-08-19T20:45:44.283Z,6.6
2022-08-19T20:46:54.172Z,6.6
2022-08-19T20:48:00.956Z,6.6
2022-08-19T20:49:09.497Z,7.3
2022-08-19T20:50:17.831Z,7.3
2022-08-19T20:51:26.167Z,7.3
2022-08-19T20:52:34.709Z,7.1
2022-08-19T20:53:43.055Z,7.1
2022-08-19T20:54:51.393Z,7.1
2022-08-19T20:56:00.168Z,7.2